Time;durP1;ratioP1;P1;durP2;ratioP2;P2;SDS_P1;SDS_P2;PMS_P1;PMS_P2;Temp;Humidity;BMP_temperature;BMP_pressure;BME280_temperature;BME280_humidity;BME280_pressure;Samples;Min_cycle;Max_cycle;Signal;HPM_P1;HPM_P2
2022/02/04 00:07:35;;;;;;;10.63;7.70;;;9.50;99.90;;;;;;4966335;28;20491;-83
2022/02/04 00:22:46;;;;;;;11.10;8.67;;;9.70;99.90;;;;;;4976289;28;20464;-82
2022/02/04 00:25:39;;;;;;;10.03;7.67;;;9.50;99.90;;;;;;4975740;28;20468;-81
2022/02/04 00:28:28;;;;;;;8.67;7.20;;;9.60;99.90;;;;;;4972339;28;20799;-83
2022/02/04 00:33:55;;;;;;;9.47;8.43;;;9.40;99.90;;;;;;4971798;28;20464;-82
2022/02/04 00:40:11;;;;;;;8.83;6.80;;;9.40;99.90;;;;;;4971250;28;20964;-83
2022/02/04 00:42:57;;;;;;;8.83;7.73;;;9.40;99.90;;;;;;4977836;28;20479;-82
2022/02/04 00:45:55;;;;;;;10.83;7.60;;;9.40;99.90;;;;;;4984098;28;20469;-82
2022/02/04 00:54:40;;;;;;;8.80;7.43;;;9.50;99.90;;;;;;4975781;28;20453;-83
2022/02/04 01:27:39;;;;;;;8.27;6.07;;;9.40;99.90;;;;;;4972188;28;20498;-83
2022/02/04 01:30:26;;;;;;;6.80;5.67;;;9.50;99.90;;;;;;4971642;28;20507;-83
2022/02/04 01:33:13;;;;;;;6.70;6.00;;;10.50;99.90;;;;;;4974334;28;20458;-84
2022/02/04 01:35:56;;;;;;;6.70;6.00;;;9.60;99.90;;;;;;4968863;28;20457;-82
2022/02/04 01:38:51;;;;;;;8.60;6.30;;;10.30;99.90;;;;;;4960876;28;20471;-83
2022/02/04 01:41:37;;;;;;;6.63;5.53;;;9.30;99.90;;;;;;4957770;28;20460;-85
2022/02/04 01:44:36;;;;;;;6.30;4.87;;;9.50;99.90;;;;;;4967180;28;20969;-86
2022/02/04 01:47:31;;;;;;;5.17;4.67;;;9.40;99.90;;;;;;4966516;28;20492;-86
2022/02/04 01:50:10;;;;;;;5.27;4.30;;;9.10;99.90;;;;;;4968312;28;20448;-83
2022/02/04 01:52:55;;;;;;;4.20;3.80;;;9.00;99.90;;;;;;4971876;28;20471;-84
2022/02/04 01:55:33;;;;;;;4.77;3.60;;;9.00;99.90;;;;;;4983457;28;20460;-84
2022/02/04 01:58:20;;;;;;;4.83;3.67;;;9.80;99.90;;;;;;4975217;28;20551;-84
2022/02/04 02:01:07;;;;;;;4.53;4.13;;;9.20;99.90;;;;;;4974314;28;20486;-81
2022/02/04 02:07:11;;;;;;;4.73;4.00;;;9.50;99.90;;;;;;4967614;28;20533;-84
2022/02/04 02:13:36;;;;;;;4.10;3.70;;;9.30;99.90;;;;;;4978144;28;20452;-85
2022/02/04 02:49:07;;;;;;;2.90;2.60;;;9.50;99.90;;;;;;4904617;29;20502;-84
2022/02/04 02:55:32;;;;;;;3.43;3.10;;;9.40;99.90;;;;;;4912423;29;20463;-85
2022/02/04 03:02:51;;;;;;;3.53;3.10;;;9.20;99.90;;;;;;4953914;29;20467;-85
2022/02/04 03:08:35;;;;;;;4.30;3.80;;;9.50;99.90;;;;;;4587367;26;20485;-83
2022/02/04 03:11:36;;;;;;;4.07;3.60;;;9.70;99.90;;;;;;4937063;29;20462;-85
2022/02/04 03:14:34;;;;;;;6.13;3.80;;;9.90;99.90;;;;;;4929241;29;20530;-84
2022/02/04 03:17:35;;;;;;;3.90;3.50;;;9.60;99.90;;;;;;4917820;29;20595;-87
2022/02/04 03:21:18;;;;;;;5.23;3.93;;;9.70;99.90;;;;;;4932648;29;20470;-85
2022/02/04 03:24:16;;;;;;;4.40;4.00;;;9.60;99.90;;;;;;4913794;29;20439;-87
2022/02/04 03:27:10;;;;;;;4.60;4.00;;;9.60;99.90;;;;;;4927352;29;20563;-84
2022/02/04 03:30:06;;;;;;;3.90;3.60;;;10.10;99.90;;;;;;4935748;29;20514;-85
2022/02/04 03:33:23;;;;;;;;;;;;;;;;;;;;;
2022/02/04 03:43:34;;;;;;;4.90;3.70;;;9.40;99.90;;;;;;4914902;29;20557;-85
2022/02/04 03:55:30;;;;;;;;;;;;;;;;;;;;;
2022/02/04 03:59:05;;;;;;;4.17;3.63;;;9.40;99.90;;;;;;4931454;29;20519;-83
2022/02/04 04:05:47;;;;;;;;;;;;;;;;;;;;;
2022/02/04 04:09:04;;;;;;;3.40;3.10;;;9.30;99.90;;;;;;4960130;28;20561;-84
2022/02/04 04:12:22;;;;;;;4.17;3.77;;;9.60;99.90;;;;;;4947211;28;20441;-83
2022/02/04 04:18:47;;;;;;;6.23;3.20;;;9.50;99.90;;;;;;5083876;23;20600;-88
2022/02/04 04:22:16;;;;;;;3.43;3.10;;;9.70;99.90;;;;;;4969782;28;20451;-85
2022/02/04 04:24:50;;;;;;;4.13;3.57;;;9.70;99.90;;;;;;4952417;29;20505;-86
2022/02/04 04:28:05;;;;;;;4.37;3.97;;;9.70;99.90;;;;;;5016769;23;20546;-86
2022/02/04 04:31:23;;;;;;;5.37;4.87;;;9.90;99.90;;;;;;4994506;28;20464;-84
2022/02/04 04:34:44;;;;;;;;;;;;;;;;;;;;;
2022/02/04 05:29:58;;;;;;;3.60;3.30;;;9.30;99.90;;;;;;4964599;28;20882;-84
2022/02/04 05:33:04;;;;;;;3.40;2.70;;;9.40;99.90;;;;;;4995095;28;20447;-84
2022/02/04 05:36:36;;;;;;;3.00;2.67;;;10.00;99.90;;;;;;4987291;28;20487;-84
2022/02/04 05:40:09;;;;;;;3.30;3.00;;;9.80;99.90;;;;;;4959776;28;20478;-85
2022/02/04 05:47:14;;;;;;;2.83;2.53;;;10.00;99.90;;;;;;4865464;29;20468;-84
2022/02/04 05:55:05;;;;;;;3.77;3.33;;;10.10;99.90;;;;;;4876934;29;20834;-86
2022/02/04 05:58:04;;;;;;;2.80;2.40;;;9.70;99.90;;;;;;4830407;29;20467;-84
2022/02/04 06:22:58;;;;;;;1.67;1.57;;;9.70;99.90;;;;;;4872309;29;20515;-83
2022/02/04 06:25:50;;;;;;;1.93;1.83;;;9.90;99.90;;;;;;4834688;29;20570;-84
2022/02/04 06:29:07;;;;;;;2.70;2.07;;;9.80;99.90;;;;;;4809886;29;20574;-84
2022/02/04 06:35:20;;;;;;;1.50;1.40;;;9.70;99.90;;;;;;4852638;29;21015;-85
2022/02/04 06:38:45;;;;;;;2.83;1.50;;;9.80;99.90;;;;;;4865682;29;20480;-85
2022/02/04 06:45:56;;;;;;;2.43;2.23;;;9.70;99.90;;;;;;4805567;29;20460;-83
2022/02/04 06:49:23;;;;;;;2.20;2.00;;;10.00;99.90;;;;;;4861016;29;20479;-85
2022/02/04 06:53:56;;;;;;;1.87;1.77;;;9.80;99.90;;;;;;4877483;29;20885;-86
2022/02/04 06:56:37;;;;;;;2.03;1.83;;;9.50;99.90;;;;;;4799483;29;20476;-86
2022/02/04 06:59:58;;;;;;;2.50;2.30;;;9.40;99.90;;;;;;4730833;30;20475;-85
2022/02/04 07:03:28;;;;;;;4.43;2.43;;;9.70;99.90;;;;;;4770620;29;20472;-86
2022/02/04 07:09:55;;;;;;;2.37;2.17;;;9.60;99.90;;;;;;4998032;28;20945;-86
2022/02/04 07:12:54;;;;;;;3.07;2.13;;;9.70;99.90;;;;;;4986875;28;20537;-85
2022/02/04 07:20:00;;;;;;;2.40;2.20;;;9.70;99.90;;;;;;5000954;28;20850;-83
2022/02/04 07:26:30;;;;;;;;;;;;;;;;;;;;;
2022/02/04 07:29:47;;;;;;;3.93;2.43;;;10.00;99.90;;;;;;4998751;28;20807;-85
2022/02/04 07:33:23;;;;;;;3.40;2.10;;;9.80;99.90;;;;;;5002888;28;20458;-85
2022/02/04 07:42:54;;;;;;;1.90;1.80;;;9.40;99.90;;;;;;5012901;28;20832;-86
2022/02/04 07:46:20;;;;;;;2.47;2.10;;;9.60;99.90;;;;;;5022055;28;20470;-85
2022/02/04 07:49:43;;;;;;;2.30;1.50;;;9.60;99.90;;;;;;5015590;28;20524;-87
2022/02/04 07:52:49;;;;;;;2.20;1.50;;;9.80;99.90;;;;;;5008846;28;20469;-82
2022/02/04 07:55:37;;;;;;;1.93;1.73;;;9.70;99.90;;;;;;4999818;28;20431;-88
2022/02/04 08:01:50;;;;;;;2.33;2.13;;;9.20;99.90;;;;;;4989399;28;20440;-85
2022/02/04 08:05:23;;;;;;;1.90;1.50;;;9.70;99.90;;;;;;5021618;28;20462;-83
2022/02/04 08:08:56;;;;;;;3.03;2.47;;;9.70;99.90;;;;;;4978726;28;20475;-82
2022/02/04 08:47:18;;;;;;;2.97;1.87;;;9.70;99.90;;;;;;4952856;29;20601;-83
2022/02/04 09:01:00;;;;;;;2.60;2.40;;;9.70;99.90;;;;;;4955378;29;20919;-83
2022/02/04 09:04:16;;;;;;;3.00;2.80;;;9.70;99.90;;;;;;4943900;29;20560;-86
2022/02/04 09:07:11;;;;;;;3.30;2.70;;;10.10;99.90;;;;;;4940696;29;20625;-85
2022/02/04 09:22:56;;;;;;;2.57;2.37;;;10.00;99.90;;;;;;4977520;28;20459;-82
2022/02/04 09:25:37;;;;;;;2.67;2.17;;;10.30;99.90;;;;;;4978097;28;20937;-82
2022/02/04 09:28:54;;;;;;;2.70;2.50;;;10.30;99.90;;;;;;4983867;28;20488;-82
2022/02/04 09:39:12;;;;;;;3.13;1.87;;;10.70;99.90;;;;;;4939059;28;20513;-82
2022/02/04 09:42:08;;;;;;;2.07;1.83;;;10.90;99.90;;;;;;4983553;28;20436;-83
2022/02/04 09:45:06;;;;;;;1.60;1.50;;;10.90;99.90;;;;;;4975253;28;20522;-84
2022/02/04 09:47:55;;;;;;;1.93;1.73;;;10.90;99.90;;;;;;4969525;28;20618;-82
2022/02/04 09:51:07;;;;;;;2.60;1.43;;;10.90;99.90;;;;;;4981484;28;20445;-83
2022/02/04 10:12:16;;;;;;;0.80;0.80;;;11.10;99.90;;;;;;4972185;28;20513;-83
2022/02/04 10:18:10;;;;;;;0.80;0.80;;;11.00;98.70;;;;;;4979586;28;20492;-80
2022/02/04 10:20:43;;;;;;;0.90;0.90;;;10.90;99.50;;;;;;4999121;28;20504;-81
2022/02/04 10:23:43;;;;;;;1.00;0.90;;;10.80;99.90;;;;;;4995036;28;20463;-81
2022/02/04 10:26:35;;;;;;;0.97;0.97;;;10.80;99.90;;;;;;4974322;28;20556;-80
2022/02/04 10:29:39;;;;;;;1.70;0.87;;;11.00;99.90;;;;;;4981566;28;20546;-79
2022/02/04 10:32:46;;;;;;;1.20;1.10;;;11.00;99.00;;;;;;4980909;28;20447;-80
2022/02/04 10:35:28;;;;;;;1.00;0.80;;;11.30;99.90;;;;;;4976596;28;21000;-81
2022/02/04 10:38:26;;;;;;;0.80;0.80;;;11.10;99.30;;;;;;4978982;28;20503;-82
2022/02/04 10:41:27;;;;;;;0.80;0.80;;;11.30;98.30;;;;;;4993809;28;20461;-84
2022/02/04 10:44:25;;;;;;;1.23;0.70;;;11.50;97.90;;;;;;4981922;28;20488;-79
2022/02/04 11:06:17;;;;;;;0.93;0.70;;;10.90;97.40;;;;;;4974987;28;20465;-82
2022/02/04 11:35:31;;;;;;;0.70;0.70;;;11.20;96.80;;;;;;4968350;28;20472;-84
2022/02/04 11:48:42;;;;;;;0.90;0.80;;;10.80;98.10;;;;;;4959435;28;20479;-83
2022/02/04 11:54:53;;;;;;;1.23;0.70;;;11.20;96.90;;;;;;4962236;28;20473;-84
2022/02/04 11:57:27;;;;;;;1.10;0.70;;;11.10;97.30;;;;;;4969318;28;20487;-83
2022/02/04 12:00:40;;;;;;;1.13;0.60;;;11.30;98.00;;;;;;4968123;28;20472;-84
2022/02/04 12:03:40;;;;;;;2.93;0.60;;;11.20;97.10;;;;;;4957280;28;20504;-84
2022/02/04 12:06:41;;;;;;;0.70;0.70;;;10.90;97.40;;;;;;4965239;28;20484;-84
2022/02/04 12:09:16;;;;;;;0.70;0.70;;;11.70;97.80;;;;;;4966026;28;20497;-83
2022/02/04 12:12:02;;;;;;;0.50;0.50;;;11.10;96.70;;;;;;4963033;28;20812;-83
2022/02/04 12:14:33;;;;;;;1.37;0.50;;;11.10;96.70;;;;;;4978846;28;20539;-82
2022/02/04 12:17:44;;;;;;;1.07;0.73;;;11.20;96.90;;;;;;4978968;28;20483;-85
2022/02/04 12:21:06;;;;;;;0.60;0.60;;;11.10;96.80;;;;;;4988545;28;20463;-85
2022/02/04 12:24:06;;;;;;;0.60;0.60;;;11.20;96.60;;;;;;4971734;28;20491;-85
2022/02/04 12:26:54;;;;;;;1.03;0.50;;;11.60;97.20;;;;;;4972679;28;20480;-85
2022/02/04 12:30:12;;;;;;;1.17;0.67;;;11.00;97.20;;;;;;4975924;28;20495;-85
2022/02/04 12:33:03;;;;;;;1.57;1.10;;;10.80;97.20;;;;;;4985585;28;20457;-82
2022/02/04 12:36:16;;;;;;;1.13;0.80;;;10.90;97.30;;;;;;4968495;28;20491;-86
2022/02/04 12:39:22;;;;;;;1.17;0.70;;;10.80;97.60;;;;;;4964787;28;20485;-84
2022/02/04 12:42:42;;;;;;;1.30;0.80;;;10.60;97.80;;;;;;4996695;28;20456;-84
2022/02/04 12:45:38;;;;;;;0.63;0.53;;;10.60;97.30;;;;;;4998185;28;20476;-85
2022/02/04 12:48:36;;;;;;;0.73;0.70;;;10.70;96.90;;;;;;4945750;28;20506;-84
2022/02/04 12:51:35;;;;;;;0.73;0.73;;;10.70;97.60;;;;;;4976661;28;20555;-85
2022/02/04 12:55:05;;;;;;;0.77;0.77;;;11.10;96.90;;;;;;4979684;28;20531;-85
2022/02/04 13:10:26;;;;;;;5.80;3.30;;;11.00;96.00;;;;;;4987651;28;20474;-85
2022/02/04 13:13:19;;;;;;;1.30;1.00;;;11.40;96.90;;;;;;4994371;28;20567;-86
2022/02/04 13:15:54;;;;;;;5.47;1.50;;;11.10;96.80;;;;;;4979820;28;20487;-84
2022/02/04 13:18:27;;;;;;;1.27;1.17;;;11.20;96.80;;;;;;5001014;28;20482;-85
2022/02/04 13:21:10;;;;;;;2.90;1.53;;;11.10;96.40;;;;;;4982810;28;20476;-85
2022/02/04 13:23:52;;;;;;;1.80;1.50;;;11.00;96.30;;;;;;4976501;28;20463;-85
2022/02/04 13:27:05;;;;;;;3.50;1.70;;;11.10;96.60;;;;;;4979514;28;20881;-87
2022/02/04 13:29:58;;;;;;;0.93;0.83;;;10.90;96.70;;;;;;4986447;28;20487;-85
2022/02/04 13:32:43;;;;;;;1.77;1.30;;;11.10;96.40;;;;;;4980797;28;20464;-85
2022/02/04 13:35:40;;;;;;;1.83;1.50;;;11.30;96.40;;;;;;4983726;28;20547;-85
2022/02/04 13:45:12;;;;;;;0.80;0.80;;;11.00;96.10;;;;;;4958148;29;20458;-86
2022/02/04 13:47:58;;;;;;;1.60;1.50;;;10.70;95.80;;;;;;4967706;28;20484;-85
2022/02/04 13:53:38;;;;;;;1.27;0.90;;;11.00;96.40;;;;;;4969903;28;20470;-86
2022/02/04 13:56:17;;;;;;;2.80;1.77;;;11.00;95.50;;;;;;4982442;28;20513;-85
2022/02/04 13:58:50;;;;;;;3.63;2.27;;;11.20;95.30;;;;;;4984379;28;20452;-83
2022/02/04 14:01:33;;;;;;;5.17;1.70;;;10.90;95.40;;;;;;5002328;28;20817;-85
2022/02/04 14:04:03;;;;;;;2.83;2.63;;;10.80;95.40;;;;;;4984061;28;20453;-84
2022/02/04 14:06:37;;;;;;;1.40;1.10;;;10.80;95.70;;;;;;5000204;28;20547;-85
2022/02/04 14:09:18;;;;;;;2.83;1.50;;;10.90;95.10;;;;;;5002843;28;20485;-87
2022/02/04 14:11:49;;;;;;;1.97;1.60;;;11.20;94.00;;;;;;4984890;28;20479;-86
2022/02/04 14:14:22;;;;;;;1.70;1.60;;;11.10;94.00;;;;;;4981296;28;20463;-87
2022/02/04 14:16:59;;;;;;;2.60;1.30;;;11.30;94.20;;;;;;4998371;28;20547;-85
2022/02/04 14:19:29;;;;;;;4.40;1.40;;;11.10;94.50;;;;;;4995462;28;20496;-85
2022/02/04 14:21:58;;;;;;;2.07;1.37;;;11.50;94.30;;;;;;4995903;28;20466;-85
2022/02/04 14:24:28;;;;;;;2.77;1.70;;;11.40;93.90;;;;;;4982513;28;20466;-85
2022/02/04 14:26:57;;;;;;;2.70;1.70;;;12.00;93.90;;;;;;4983874;28;20558;-85
2022/02/04 14:29:38;;;;;;;2.60;1.60;;;11.40;93.30;;;;;;4999320;28;20862;-83
2022/02/04 14:32:19;;;;;;;3.53;2.80;;;11.40;93.20;;;;;;4980873;28;20461;-85
2022/02/04 14:51:43;;;;;;;3.93;2.07;;;11.10;93.00;;;;;;4989132;28;20480;-86
2022/02/04 14:54:15;;;;;;;3.60;1.23;;;11.40;92.90;;;;;;4987123;28;20452;-85
2022/02/04 15:00:07;;;;;;;1.20;1.10;;;11.10;92.80;;;;;;4983174;28;20467;-86
2022/02/04 15:02:29;;;;;;;2.27;2.00;;;11.00;92.70;;;;;;4970031;28;20506;-85
2022/02/04 15:05:00;;;;;;;7.60;3.83;;;11.10;93.40;;;;;;4991216;28;20461;-85
2022/02/04 15:07:36;;;;;;;4.03;2.37;;;11.20;93.70;;;;;;4976114;28;20556;-85
2022/02/04 15:10:13;;;;;;;1.17;0.93;;;11.20;93.90;;;;;;4967678;28;20486;-86
2022/02/04 15:12:45;;;;;;;2.23;1.60;;;11.30;93.80;;;;;;5001163;28;20508;-86
2022/02/04 15:15:17;;;;;;;1.57;0.90;;;11.10;94.00;;;;;;4993270;28;20467;-84
2022/02/04 15:17:45;;;;;;;1.20;1.10;;;10.90;93.80;;;;;;5004208;28;20480;-85
2022/02/04 15:20:19;;;;;;;2.70;1.10;;;11.10;94.20;;;;;;4991142;28;20517;-85
2022/02/04 15:22:49;;;;;;;1.07;0.90;;;10.90;94.40;;;;;;5006927;28;20460;-83
2022/02/04 15:25:21;;;;;;;2.50;1.00;;;10.90;94.90;;;;;;5006432;28;20503;-85
2022/02/04 15:30:34;;;;;;;4.63;1.03;;;11.00;93.90;;;;;;4994663;28;20560;-83
2022/02/04 15:33:02;;;;;;;1.77;0.70;;;11.00;94.40;;;;;;4994047;28;20452;-83
2022/02/04 15:35:33;;;;;;;0.97;0.87;;;11.00;94.40;;;;;;5010050;28;20436;-86
2022/02/04 15:38:02;;;;;;;1.30;0.80;;;11.20;94.00;;;;;;5009493;28;20468;-82
2022/02/04 15:40:30;;;;;;;4.03;0.93;;;11.10;94.10;;;;;;5003094;28;20471;-83
2022/02/04 15:43:01;;;;;;;4.60;0.93;;;11.40;94.40;;;;;;4997793;28;20460;-84
2022/02/04 15:51:07;;;;;;;2.40;0.93;;;11.20;96.30;;;;;;4984057;28;20483;-85
2022/02/04 15:53:52;;;;;;;5.53;1.53;;;10.90;97.60;;;;;;4998218;28;20464;-85
2022/02/04 15:56:42;;;;;;;3.77;1.17;;;10.70;99.10;;;;;;4997401;28;20511;-85
2022/02/04 16:04:44;;;;;;;1.33;1.00;;;10.50;99.90;;;;;;4980405;28;20499;-88
2022/02/04 16:07:14;;;;;;;2.93;1.63;;;10.50;99.90;;;;;;4982312;28;20479;-86
2022/02/04 16:09:43;;;;;;;1.43;1.30;;;10.80;99.90;;;;;;4986279;28;20481;-87
2022/02/04 16:12:23;;;;;;;3.33;1.57;;;10.80;99.90;;;;;;4999177;28;20463;-86
2022/02/04 16:19:27;;;;;;;2.50;1.00;;;10.50;99.90;;;;;;4899153;29;20473;-89
2022/02/04 16:38:54;;;;;;;2.43;1.33;;;10.40;99.90;;;;;;4998850;28;20466;-86
2022/02/04 16:41:55;;;;;;;1.43;1.03;;;10.30;99.90;;;;;;4995128;28;20462;-86
2022/02/04 16:44:26;;;;;;;0.80;0.80;;;10.10;99.90;;;;;;4984993;28;20479;-85
2022/02/04 16:47:34;;;;;;;1.30;1.20;;;10.20;99.90;;;;;;5000132;28;20522;-86
2022/02/04 16:50:46;;;;;;;;;;;;;;;;;;;;;
2022/02/04 16:54:18;;;;;;;2.23;1.00;;;9.90;99.90;;;;;;4995091;28;20981;-86
2022/02/04 16:58:01;;;;;;;1.67;1.00;;;9.80;99.90;;;;;;4942337;29;20439;-86
2022/02/04 17:02:01;;;;;;;3.20;1.53;;;9.80;99.90;;;;;;4883048;29;20453;-86
2022/02/04 17:04:57;;;;;;;0.80;0.80;;;9.50;99.90;;;;;;4861208;29;20477;-85
2022/02/04 17:08:06;;;;;;;2.33;2.13;;;9.50;99.90;;;;;;4868162;29;20489;-88
2022/02/04 17:11:29;;;;;;;1.00;0.90;;;9.20;99.90;;;;;;4890394;29;20494;-87
2022/02/04 17:18:39;;;;;;;2.10;0.90;;;8.90;99.90;;;;;;4942212;29;20585;-86
2022/02/04 17:21:34;;;;;;;2.07;1.50;;;8.90;99.90;;;;;;4911455;29;20550;-85
2022/02/04 17:25:18;;;;;;;2.30;1.03;;;8.80;99.90;;;;;;4881307;29;20504;-86
2022/02/04 17:32:39;;;;;;;;;;;;;;;;;;;;;
2022/02/04 17:46:11;;;;;;;1.67;1.50;;;8.20;99.90;;;;;;5001878;28;20479;-86
2022/02/04 17:52:47;;;;;;;1.37;1.27;;;8.00;99.90;;;;;;4987662;28;21078;-86
2022/02/04 18:10:21;;;;;;;;;;;;;;;;;;;;;
2022/02/04 18:13:43;;;;;;;;;;;;;;;;;;;;;
2022/02/04 18:17:40;;;;;;;4.37;3.97;;;7.90;99.90;;;;;;4919473;29;20492;-86
2022/02/04 18:20:25;;;;;;;4.57;4.17;;;7.90;99.90;;;;;;4895606;29;20510;-86
2022/02/04 18:23:25;;;;;;;4.53;4.13;;;7.80;99.90;;;;;;4923862;29;20459;-88
2022/02/04 18:26:51;;;;;;;3.00;2.90;;;7.70;99.90;;;;;;4894902;29;20439;-87
2022/02/04 18:29:56;;;;;;;2.73;2.53;;;7.70;99.90;;;;;;4931343;28;20464;-87
2022/02/04 18:33:06;;;;;;;2.73;2.50;;;7.70;99.90;;;;;;4982523;28;20535;-86
2022/02/04 18:36:59;;;;;;;3.17;2.93;;;7.70;99.90;;;;;;5093805;23;20461;-86
2022/02/04 18:52:57;;;;;;;1.93;1.67;;;7.40;99.90;;;;;;4989826;28;20511;-87
2022/02/04 18:58:41;;;;;;;2.80;1.80;;;6.90;99.90;;;;;;4957324;29;20477;-86
2022/02/04 19:01:58;;;;;;;4.53;3.03;;;7.10;99.90;;;;;;4925679;29;20445;-87
2022/02/04 19:05:06;;;;;;;4.70;2.23;;;7.10;99.90;;;;;;4960377;29;20523;-85
2022/02/04 19:08:57;;;;;;;2.93;2.47;;;7.40;99.90;;;;;;4962640;28;20544;-84
2022/02/04 19:27:07;;;;;;;4.77;2.63;;;7.10;99.90;;;;;;4868177;29;20534;-84
2022/02/04 19:30:52;;;;;;;2.80;2.33;;;7.20;99.90;;;;;;4878436;29;20569;-86
2022/02/04 19:34:36;;;;;;;;;;;;;;;;;;;;;
2022/02/04 19:38:04;;;;;;;4.07;2.50;;;7.20;99.90;;;;;;4848064;29;20465;-85
2022/02/04 19:40:48;;;;;;;5.03;2.00;;;7.10;99.90;;;;;;4805027;29;20483;-85
2022/02/04 19:43:41;;;;;;;2.50;2.30;;;7.00;99.90;;;;;;4833869;29;20504;-87
2022/02/04 19:47:28;;;;;;;4.60;2.00;;;7.10;99.90;;;;;;4838127;29;20489;-86
2022/02/04 19:51:12;;;;;;;;;;;;;;;;;;;;;
2022/02/04 20:28:10;;;;;;;7.70;2.87;;;6.60;99.90;;;;;;4995589;28;20455;-85
2022/02/04 20:31:37;;;;;;;6.10;2.50;;;6.60;99.90;;;;;;4996362;28;20471;-87
2022/02/04 20:41:33;;;;;;;4.17;3.00;;;6.60;99.90;;;;;;4958002;29;20452;-86
2022/02/04 20:44:28;;;;;;;4.20;3.30;;;6.40;99.90;;;;;;4928937;29;20474;-85
2022/02/04 20:47:43;;;;;;;6.63;3.63;;;7.10;99.90;;;;;;4948633;28;20452;-85
2022/02/04 20:50:42;;;;;;;5.07;3.77;;;6.60;99.90;;;;;;4969276;28;20483;-86
2022/02/04 20:53:15;;;;;;;10.93;3.30;;;6.60;99.90;;;;;;4942967;29;20453;-86
2022/02/04 20:56:11;;;;;;;7.97;3.50;;;6.90;99.90;;;;;;4958007;29;20468;-86
2022/02/04 20:59:17;;;;;;;7.30;3.40;;;6.60;99.90;;;;;;4965340;28;20544;-86
2022/02/04 21:02:27;;;;;;;6.53;3.63;;;6.70;99.90;;;;;;4945685;29;20841;-86
2022/02/04 21:18:24;;;;;;;4.50;3.43;;;6.60;99.90;;;;;;5000049;28;20463;-84
2022/02/04 21:21:27;;;;;;;4.70;2.70;;;6.70;99.90;;;;;;5014015;28;20480;-85
2022/02/04 21:24:12;;;;;;;5.97;4.30;;;6.70;99.90;;;;;;4995288;28;20562;-86
2022/02/04 21:26:39;;;;;;;8.80;3.70;;;6.60;99.90;;;;;;4989143;28;20470;-85
2022/02/04 21:29:43;;;;;;;9.77;3.40;;;6.60;99.90;;;;;;4999195;28;20466;-85
2022/02/04 21:32:43;;;;;;;6.30;3.10;;;6.70;99.90;;;;;;4997019;28;20467;-86
2022/02/04 21:39:19;;;;;;;;;;;;;;;;;;;;;
2022/02/04 21:42:24;;;;;;;6.07;2.90;;;6.70;99.90;;;;;;4981640;28;20452;-85
2022/02/04 21:46:07;;;;;;;6.83;2.80;;;6.60;99.90;;;;;;4947629;28;20466;-86
2022/02/04 21:49:24;;;;;;;8.30;3.07;;;6.60;99.90;;;;;;4945479;29;20453;-85
2022/02/04 21:52:55;;;;;;;7.27;3.27;;;6.60;99.90;;;;;;4956171;29;20501;-84
2022/02/04 21:56:02;;;;;;;8.03;3.67;;;6.50;99.90;;;;;;4962499;28;20461;-85
2022/02/04 21:58:52;;;;;;;7.70;4.00;;;6.60;99.90;;;;;;4974004;28;20461;-86
2022/02/04 22:02:19;;;;;;;;;;;;;;;;;;;;;
2022/02/04 22:05:11;;;;;;;6.60;2.93;;;6.70;99.90;;;;;;4914251;29;20855;-85
2022/02/04 22:07:55;;;;;;;6.47;3.23;;;6.70;99.90;;;;;;4957344;29;20465;-86
2022/02/04 22:13:18;;;;;;;7.60;3.47;;;7.20;99.90;;;;;;4958013;28;20464;-86
2022/02/04 22:16:50;;;;;;;2.90;2.63;;;6.60;99.90;;;;;;4932474;29;20550;-89
2022/02/04 22:27:11;;;;;;;8.63;3.70;;;6.90;99.90;;;;;;4884680;29;20448;-86
2022/02/04 22:30:04;;;;;;;7.50;3.37;;;6.90;99.90;;;;;;4878024;23;20465;-83
2022/02/04 22:32:47;;;;;;;6.80;3.20;;;6.90;99.90;;;;;;4978760;28;21012;-81
2022/02/04 22:35:34;;;;;;;7.80;3.20;;;6.90;99.90;;;;;;4984897;28;20458;-83
2022/02/04 22:49:10;;;;;;;9.00;3.00;;;7.00;99.90;;;;;;4982687;28;20446;-81
2022/02/04 22:59:13;;;;;;;3.30;3.00;;;6.60;99.90;;;;;;4975386;28;20458;-84
2022/02/04 23:01:42;;;;;;;5.23;3.90;;;6.50;99.90;;;;;;4974305;28;20483;-84
2022/02/04 23:04:11;;;;;;;6.40;3.60;;;6.40;99.90;;;;;;4992435;28;20546;-84
2022/02/04 23:06:39;;;;;;;6.70;3.50;;;6.40;99.90;;;;;;4975385;28;20487;-85
2022/02/04 23:09:10;;;;;;;3.50;3.03;;;6.50;99.90;;;;;;4988034;28;20472;-86
2022/02/04 23:11:40;;;;;;;3.50;3.20;;;6.50;99.90;;;;;;4982252;28;20914;-84
2022/02/04 23:16:42;;;;;;;5.93;3.70;;;6.50;99.90;;;;;;4971698;28;20467;-85
2022/02/04 23:19:18;;;;;;;9.90;3.57;;;6.50;99.90;;;;;;4965852;28;20452;-85
2022/02/04 23:21:51;;;;;;;5.90;4.20;;;6.50;99.90;;;;;;4972502;28;20483;-86
2022/02/04 23:24:26;;;;;;;7.03;4.67;;;6.50;99.90;;;;;;4972632;28;20464;-85
2022/02/04 23:26:59;;;;;;;11.37;4.50;;;6.60;99.90;;;;;;4963792;28;20532;-85
2022/02/04 23:29:38;;;;;;;7.63;5.10;;;6.50;99.90;;;;;;4998888;28;20893;-83
2022/02/04 23:46:05;;;;;;;6.60;4.70;;;6.40;99.90;;;;;;4966557;28;20465;-84
2022/02/04 23:51:14;;;;;;;6.97;4.00;;;6.60;99.90;;;;;;4983245;28;20495;-85
2022/02/04 23:53:41;;;;;;;6.03;3.80;;;7.10;99.90;;;;;;4982832;28;20464;-83
2022/02/04 23:56:08;;;;;;;8.60;3.60;;;6.40;99.90;;;;;;4983730;28;20949;-83
2022/02/04 23:58:49;;;;;;;6.83;4.03;;;6.40;99.90;;;;;;4982625;28;20548;-82
